createdAt,value
2023-03-06T00:00:01.347Z,98128.56
2023-03-06T00:03:05.499Z,98136.63
2023-03-06T00:06:09.292Z,98137.34
2023-03-06T00:09:12.833Z,98140.06
2023-03-06T00:12:17.725Z,98131.97
2023-03-06T00:15:22.087Z,98138.13
2023-03-06T00:18:25.649Z,98127.75
2023-03-06T00:21:29.161Z,98130.22
2023-03-06T00:24:33.104Z,98135.31
2023-03-06T00:27:38.724Z,98126.75
2023-03-06T00:30:42.235Z,98129.47
2023-03-06T00:33:45.761Z,98119.72
2023-03-06T00:36:49.182Z,98120.91
2023-03-06T00:39:52.952Z,98116.91
2023-03-06T00:43:08.290Z,98117.63
2023-03-06T00:46:12.357Z,98116.25
2023-03-06T00:49:16.438Z,98114.28
2023-03-06T00:52:20.281Z,98108.31
2023-03-06T00:55:23.755Z,98106.19
2023-03-06T00:58:28.777Z,98104.25
2023-03-06T01:01:33.376Z,98098.00
2023-03-06T01:04:37.696Z,98087.44
2023-03-06T01:07:43.182Z,98098.00
2023-03-06T01:10:53.078Z,98099.00
2023-03-06T01:13:58.100Z,98098.47
2023-03-06T01:17:01.492Z,98094.44
2023-03-06T01:20:06.053Z,98101.91
2023-03-06T01:23:10.289Z,98096.94
2023-03-06T01:29:18.747Z,98096.94
2023-03-06T01:32:24.745Z,98088.78
2023-03-06T01:35:28.557Z,98083.94
2023-03-06T01:38:32.425Z,98084.13
2023-03-06T01:41:36.112Z,98078.31
2023-03-06T01:45:02.891Z,98074.88
2023-03-06T01:48:07.090Z,98076.88
2023-03-06T01:51:11.438Z,98079.00
2023-03-06T01:54:19.615Z,98084.81
2023-03-06T01:57:28.945Z,98081.56
2023-03-06T02:00:33.922Z,98083.88
2023-03-06T02:03:40.342Z,98076.81
2023-03-06T02:06:44.513Z,98079.78
2023-03-06T02:09:48.348Z,98071.13
2023-03-06T02:12:53.457Z,98071.34
2023-03-06T02:15:58.651Z,98061.78
2023-03-06T02:19:04.100Z,98060.97
2023-03-06T02:22:08.015Z,98059.09
2023-03-06T02:25:24.444Z,98047.25
2023-03-06T02:28:28.529Z,98053.09
2023-03-06T02:31:35.955Z,98050.56
2023-03-06T02:34:58.230Z,98050.63
2023-03-06T02:38:06.416Z,98045.41
2023-03-06T02:41:11.778Z,98040.94
2023-03-06T02:44:15.572Z,98034.88
2023-03-06T02:47:19.918Z,98029.63
2023-03-06T02:50:23.605Z,98034.84
2023-03-06T02:53:27.158Z,98019.78
2023-03-06T02:56:32.181Z,98029.47
2023-03-06T02:59:35.992Z,98022.41
2023-03-06T03:02:42.766Z,98020.72
2023-03-06T03:05:46.387Z,98025.59
2023-03-06T03:09:04.488Z,98017.69
2023-03-06T03:12:10.850Z,98022.00
2023-03-06T03:15:15.564Z,98020.34
2023-03-06T03:18:20.004Z,98020.94
2023-03-06T03:21:24.560Z,98019.44
2023-03-06T03:24:30.526Z,98017.50
2023-03-06T03:27:35.468Z,98013.75
2023-03-06T03:30:40.342Z,98017.28
2023-03-06T03:33:45.067Z,98007.06
2023-03-06T03:36:49.466Z,98007.63
2023-03-06T03:39:53.682Z,98004.97
2023-03-06T03:42:58.939Z,97996.44
2023-03-06T03:46:02.624Z,97985.56
2023-03-06T03:49:06.894Z,97991.38
2023-03-06T03:55:15.808Z,97982.44
2023-03-06T03:58:21.129Z,97976.88
2023-03-06T04:01:26.244Z,97978.22
2023-03-06T04:04:30.380Z,97975.31
2023-03-06T04:07:34.029Z,97960.41
2023-03-06T04:10:39.487Z,97957.22
2023-03-06T04:13:46.427Z,97953.63
2023-03-06T04:16:50.478Z,97961.94
2023-03-06T04:19:54.109Z,97949.19
2023-03-06T04:22:59.768Z,97946.03
2023-03-06T04:26:03.783Z,97940.69
2023-03-06T04:29:08.928Z,97939.84
2023-03-06T04:32:12.492Z,97923.78
2023-03-06T04:35:16.653Z,97930.03
2023-03-06T04:38:29.006Z,97928.59
2023-03-06T04:41:32.954Z,97928.00
2023-03-06T04:44:38.050Z,97929.63
2023-03-06T04:47:41.838Z,97924.06
2023-03-06T04:50:45.442Z,97922.88
2023-03-06T04:53:49.034Z,97923.25
2023-03-06T04:56:52.500Z,97922.88
2023-03-06T04:59:58.021Z,97928.59
2023-03-06T05:03:03.046Z,97916.22
2023-03-06T05:06:07.442Z,97914.66
2023-03-06T05:09:11.033Z,97915.88
2023-03-06T05:12:14.724Z,97908.00
2023-03-06T05:15:23.422Z,97906.41
2023-03-06T05:18:27.476Z,97905.13
2023-03-06T05:21:31.617Z,97902.22
2023-03-06T05:24:35.013Z,97906.09
2023-03-06T05:27:39.063Z,97906.72
2023-03-06T05:30:43.969Z,97903.38
2023-03-06T05:33:47.703Z,97901.25
2023-03-06T05:36:51.438Z,97899.78
2023-03-06T05:39:55.609Z,97895.50
2023-03-06T05:42:59.213Z,97895.28
2023-03-06T05:46:06.234Z,97893.56
2023-03-06T05:49:10.145Z,97895.19
2023-03-06T05:52:17.560Z,97887.69
2023-03-06T05:55:22.264Z,97885.81
2023-03-06T05:58:25.664Z,97888.00
2023-03-06T06:01:30.528Z,97890.03
2023-03-06T06:04:34.125Z,97892.72
2023-03-06T06:07:38.235Z,97877.53
2023-03-06T06:10:41.704Z,97894.75
2023-03-06T06:13:45.606Z,97886.75
2023-03-06T06:16:50.814Z,97882.88
2023-03-06T06:19:54.920Z,97887.78
2023-03-06T06:22:58.511Z,97886.13
2023-03-06T06:26:03.146Z,97881.66
2023-03-06T06:29:06.827Z,97882.38
2023-03-06T06:32:11.857Z,97891.78
2023-03-06T06:35:15.622Z,97893.25
2023-03-06T06:38:19.394Z,97883.34
2023-03-06T06:44:46.541Z,97887.03
2023-03-06T06:47:52.368Z,97892.03
2023-03-06T06:50:59.032Z,97893.88
2023-03-06T06:54:03.136Z,97901.56
2023-03-06T06:57:06.591Z,97895.44
2023-03-06T07:00:14.008Z,97899.94
2023-03-06T07:03:19.070Z,97897.84
2023-03-06T07:06:23.126Z,97896.41
2023-03-06T07:09:27.114Z,97899.38
2023-03-06T07:12:33.019Z,97902.56
2023-03-06T07:15:36.538Z,97899.38
2023-03-06T07:18:41.995Z,97904.75
2023-03-06T07:21:45.639Z,97902.22
2023-03-06T07:24:49.129Z,97896.88
2023-03-06T07:27:54.432Z,97900.34
2023-03-06T07:30:58.190Z,97908.59
2023-03-06T07:34:05.005Z,97908.56
2023-03-06T07:37:08.690Z,97917.09
2023-03-06T07:40:13.541Z,97913.97
2023-03-06T07:43:19.650Z,97923.63
2023-03-06T07:46:31.050Z,97931.09
2023-03-06T07:49:36.493Z,97929.53
2023-03-06T07:52:40.043Z,97929.81
2023-03-06T07:55:43.615Z,97929.22
2023-03-06T07:58:48.752Z,97935.81
2023-03-06T08:01:52.631Z,97931.72
2023-03-06T08:04:57.703Z,97930.88
2023-03-06T08:08:01.336Z,97933.16
2023-03-06T08:11:05.075Z,97926.38
2023-03-06T08:14:08.460Z,97930.81
2023-03-06T08:17:12.096Z,97937.97
2023-03-06T08:20:17.576Z,97935.25
2023-03-06T08:23:21.309Z,97925.38
2023-03-06T08:26:27.268Z,97936.69
2023-03-06T08:29:32.309Z,97924.28
2023-03-06T08:32:37.345Z,97924.91
2023-03-06T08:35:42.610Z,97922.88
2023-03-06T08:38:46.116Z,97921.66
2023-03-06T08:41:49.487Z,97923.03
2023-03-06T08:44:52.984Z,97926.13
2023-03-06T08:47:56.459Z,97920.66
2023-03-06T08:51:01.540Z,97923.88
2023-03-06T08:54:05.493Z,97928.50
2023-03-06T08:57:09.561Z,97919.72
2023-03-06T09:00:14.356Z,97931.59
2023-03-06T09:03:17.955Z,97926.06
2023-03-06T09:06:22.922Z,97942.06
2023-03-06T09:09:26.421Z,97936.13
2023-03-06T09:12:32.642Z,97934.41
2023-03-06T09:15:40.738Z,97933.13
2023-03-06T09:18:44.161Z,97924.41
2023-03-06T09:21:49.270Z,97925.22
2023-03-06T09:24:53.047Z,97918.78
2023-03-06T09:28:10.555Z,97929.53
2023-03-06T09:31:18.401Z,97928.38
2023-03-06T09:34:22.240Z,97931.00
2023-03-06T09:37:27.236Z,97924.09
2023-03-06T09:40:40.579Z,97931.47
2023-03-06T09:43:47.030Z,97925.63
2023-03-06T09:47:22.460Z,97924.13
2023-03-06T09:50:31.940Z,97927.09
2023-03-06T09:53:51.368Z,97923.72
2023-03-06T09:56:54.781Z,97920.25
2023-03-06T10:00:04.330Z,97916.19
2023-03-06T10:03:19.100Z,97920.75
2023-03-06T10:06:28.073Z,97917.09
2023-03-06T10:09:42.043Z,97916.25
2023-03-06T10:12:53.404Z,97916.34
2023-03-06T10:16:08.148Z,97907.16
2023-03-06T10:19:15.998Z,97912.00
2023-03-06T10:22:27.526Z,97901.84
2023-03-06T10:25:38.669Z,97899.47
2023-03-06T10:28:48.383Z,97901.06
2023-03-06T10:32:03.515Z,97890.19
2023-03-06T10:35:17.287Z,97886.44
2023-03-06T10:38:24.493Z,97891.16
2023-03-06T10:41:31.188Z,97890.13
2023-03-06T10:44:34.728Z,97881.16
2023-03-06T10:47:40.412Z,97879.16
2023-03-06T10:50:43.841Z,97878.22
2023-03-06T10:53:53.654Z,97871.81
2023-03-06T10:56:58.849Z,97872.38
2023-03-06T11:00:05.707Z,97867.88
2023-03-06T11:03:22.282Z,97866.28
2023-03-06T11:06:35.773Z,97865.59
2023-03-06T11:09:41.852Z,97854.53
2023-03-06T11:12:59.420Z,97851.66
2023-03-06T11:16:06.700Z,97847.09
2023-03-06T11:19:24.194Z,97846.06
2023-03-06T11:22:34.883Z,97844.75
2023-03-06T11:25:41.836Z,97836.91
2023-03-06T11:28:51.466Z,97834.00
2023-03-06T11:31:59.702Z,97829.84
2023-03-06T11:35:07.440Z,97827.88
2023-03-06T11:38:18.297Z,97820.31
2023-03-06T11:41:31.899Z,97825.97
2023-03-06T11:44:48.170Z,97819.28
2023-03-06T11:47:59.030Z,97813.13
2023-03-06T11:51:08.608Z,97820.72
2023-03-06T11:54:14.381Z,97816.63
2023-03-06T11:57:22.434Z,97804.44
2023-03-06T12:00:42.525Z,97792.78
2023-03-06T12:04:03.847Z,97795.47
2023-03-06T12:07:21.863Z,97789.88
2023-03-06T12:10:31.132Z,97784.88
2023-03-06T12:14:00.275Z,97786.22
2023-03-06T12:17:20.257Z,97781.34
2023-03-06T12:20:45.120Z,97787.78
2023-03-06T12:24:09.524Z,97791.91
2023-03-06T12:27:21.360Z,97779.09
2023-03-06T12:31:03.498Z,97776.38
2023-03-06T12:34:21.740Z,97773.69
2023-03-06T12:37:38.113Z,97773.09
2023-03-06T12:40:55.029Z,97763.03
2023-03-06T12:44:37.063Z,97766.38
2023-03-06T12:47:45.724Z,97760.00
2023-03-06T12:50:55.047Z,97763.25
2023-03-06T12:54:01.499Z,97759.41
2023-03-06T12:57:09.232Z,97751.19
2023-03-06T13:00:55.284Z,97746.28
2023-03-06T13:04:22.974Z,97748.06
2023-03-06T13:07:41.388Z,97747.75
2023-03-06T13:10:49.583Z,97746.69
2023-03-06T13:13:53.210Z,97740.41
2023-03-06T13:17:16.848Z,97738.06
2023-03-06T13:20:36.478Z,97738.19
2023-03-06T13:23:52.741Z,97726.06
2023-03-06T13:26:58.946Z,97721.72
2023-03-06T13:30:25.762Z,97715.59
2023-03-06T13:33:56.007Z,97722.56
2023-03-06T13:37:32.527Z,97715.78
2023-03-06T13:40:37.821Z,97713.94
2023-03-06T13:43:45.414Z,97716.22
2023-03-06T13:46:58.803Z,97706.94
2023-03-06T13:50:15.176Z,97710.25
2023-03-06T13:53:46.794Z,97705.25
2023-03-06T13:57:28.448Z,97695.81
2023-03-06T14:01:16.984Z,97701.00
2023-03-06T14:04:45.859Z,97704.25
2023-03-06T14:08:03.110Z,97709.31
2023-03-06T14:11:18.692Z,97703.56
2023-03-06T14:14:33.329Z,97702.03
2023-03-06T14:17:40.339Z,97707.66
2023-03-06T14:20:47.583Z,97706.44
2023-03-06T14:24:00.719Z,97720.25
2023-03-06T14:27:04.548Z,97704.31
2023-03-06T14:30:09.983Z,97709.94
2023-03-06T14:33:14.259Z,97717.00
2023-03-06T14:36:21.578Z,97714.91
2023-03-06T14:39:31.238Z,97727.25
2023-03-06T14:42:35.269Z,97722.97
2023-03-06T14:45:39.328Z,97720.25
2023-03-06T14:48:44.601Z,97716.09
2023-03-06T14:51:53.925Z,97713.22
2023-03-06T14:54:58.371Z,97717.53
2023-03-06T14:58:06.792Z,97734.09
2023-03-06T15:01:13.344Z,97743.25
2023-03-06T15:04:26.692Z,97737.81
2023-03-06T15:07:34.067Z,97740.50
2023-03-06T15:10:38.847Z,97744.91
2023-03-06T15:13:42.325Z,97739.56
2023-03-06T15:16:45.963Z,97736.03
2023-03-06T15:19:54.742Z,97734.78
2023-03-06T15:23:00.288Z,97732.25
2023-03-06T15:26:16.468Z,97736.38
2023-03-06T15:29:23.872Z,97743.16
2023-03-06T15:32:34.759Z,97730.78
2023-03-06T15:35:39.344Z,97730.09
2023-03-06T15:38:46.223Z,97731.97
2023-03-06T15:41:49.701Z,97723.91
2023-03-06T15:44:55.232Z,97727.03
2023-03-06T15:47:58.815Z,97733.25
2023-03-06T15:51:03.413Z,97730.31
2023-03-06T15:54:12.290Z,97725.75
2023-03-06T15:57:22.291Z,97721.06
2023-03-06T16:00:28.766Z,97710.13
2023-03-06T16:03:32.553Z,97716.00
2023-03-06T16:06:36.038Z,97712.97
2023-03-06T16:09:41.356Z,97717.88
2023-03-06T16:12:48.756Z,97715.94
2023-03-06T16:15:52.491Z,97718.00
2023-03-06T16:18:55.994Z,97723.97
2023-03-06T16:21:59.916Z,97715.69
2023-03-06T16:25:05.243Z,97725.94
2023-03-06T16:28:14.283Z,97711.84
2023-03-06T16:31:17.816Z,97720.72
2023-03-06T16:34:21.402Z,97729.78
2023-03-06T16:37:25.443Z,97728.22
2023-03-06T16:40:32.921Z,97729.25
2023-03-06T16:43:37.066Z,97724.69
2023-03-06T16:46:45.458Z,97730.59
2023-03-06T16:49:48.860Z,97730.72
2023-03-06T16:52:54.022Z,97732.81
2023-03-06T16:55:58.949Z,97731.81
2023-03-06T16:59:02.445Z,97725.03
2023-03-06T17:02:06.065Z,97726.41
2023-03-06T17:05:11.849Z,97727.75
2023-03-06T17:08:15.278Z,97729.53
2023-03-06T17:11:21.674Z,97732.47
2023-03-06T17:14:25.168Z,97731.13
2023-03-06T17:17:28.662Z,97733.81
2023-03-06T17:20:32.333Z,97727.25
2023-03-06T17:23:36.186Z,97734.59
2023-03-06T17:26:41.312Z,97732.25
2023-03-06T17:29:44.963Z,97732.66
2023-03-06T17:32:48.374Z,97729.44
2023-03-06T17:35:51.826Z,97734.25
2023-03-06T17:38:57.080Z,97735.03
2023-03-06T17:42:03.352Z,97733.34
2023-03-06T17:45:09.428Z,97731.88
2023-03-06T17:48:13.721Z,97733.13
2023-03-06T17:51:17.913Z,97735.34
2023-03-06T17:54:22.081Z,97733.09
2023-03-06T17:57:27.050Z,97733.25
2023-03-06T18:00:30.681Z,97736.91
2023-03-06T18:03:36.303Z,97738.47
2023-03-06T18:06:40.930Z,97734.13
2023-03-06T18:09:44.503Z,97732.19
2023-03-06T18:12:49.426Z,97728.22
2023-03-06T18:15:52.988Z,97736.72
2023-03-06T18:18:57.764Z,97738.09
2023-03-06T18:22:01.647Z,97735.63
2023-03-06T18:25:05.763Z,97741.00
2023-03-06T18:28:10.739Z,97733.16
2023-03-06T18:31:17.454Z,97734.28
2023-03-06T18:34:21.300Z,97736.03
2023-03-06T18:37:25.108Z,97739.66
2023-03-06T18:40:29.024Z,97742.88
2023-03-06T18:43:35.030Z,97744.59
2023-03-06T18:46:40.166Z,97746.41
2023-03-06T18:49:46.282Z,97743.69
2023-03-06T18:52:50.121Z,97738.06
2023-03-06T18:55:55.212Z,97742.06
2023-03-06T18:59:02.986Z,97743.00
2023-03-06T19:02:06.811Z,97735.53
2023-03-06T19:05:10.926Z,97745.69
2023-03-06T19:08:15.897Z,97746.91
2023-03-06T19:11:19.499Z,97743.16
2023-03-06T19:14:24.744Z,97739.78
2023-03-06T19:17:31.637Z,97741.09
2023-03-06T19:20:35.485Z,97733.72
2023-03-06T19:23:39.998Z,97736.47
2023-03-06T19:26:43.556Z,97743.69
2023-03-06T19:29:48.532Z,97741.16
2023-03-06T19:32:51.950Z,97739.41
2023-03-06T19:35:55.490Z,97732.19
2023-03-06T19:39:00.806Z,97739.50
2023-03-06T19:42:05.044Z,97737.41
2023-03-06T19:45:10.926Z,97743.34
2023-03-06T19:48:15.626Z,97750.88
2023-03-06T19:51:19.106Z,97747.78
2023-03-06T19:54:24.854Z,97752.94
2023-03-06T19:57:29.922Z,97745.25
2023-03-06T20:00:34.888Z,97749.06
2023-03-06T20:03:39.002Z,97748.63
2023-03-06T20:06:45.453Z,97752.94
2023-03-06T20:09:49.139Z,97757.94
2023-03-06T20:12:55.008Z,97756.25
2023-03-06T20:16:03.962Z,97761.25
2023-03-06T20:19:08.783Z,97765.34
2023-03-06T20:22:12.882Z,97760.28
2023-03-06T20:25:16.461Z,97752.66
2023-03-06T20:28:20.688Z,97758.09
2023-03-06T20:31:30.484Z,97760.50
2023-03-06T20:34:34.174Z,97754.34
2023-03-06T20:37:37.808Z,97762.81
2023-03-06T20:40:43.885Z,97759.66
2023-03-06T20:43:47.600Z,97757.13
2023-03-06T20:46:53.168Z,97750.59
2023-03-06T20:49:56.745Z,97748.81
2023-03-06T20:53:00.514Z,97750.50
2023-03-06T20:56:04.001Z,97747.72
2023-03-06T20:59:17.767Z,97752.34
2023-03-06T21:02:23.038Z,97747.81
2023-03-06T21:05:26.658Z,97749.03
2023-03-06T21:08:30.240Z,97748.66
2023-03-06T21:11:35.342Z,97750.97
2023-03-06T21:14:38.826Z,97741.56
2023-03-06T21:17:43.814Z,97748.66
2023-03-06T21:20:47.245Z,97743.03
2023-03-06T21:23:51.355Z,97745.72
2023-03-06T21:26:54.768Z,97740.63
2023-03-06T21:29:58.204Z,97741.56
2023-03-06T21:33:03.993Z,97743.13
2023-03-06T21:36:08.500Z,97741.78
2023-03-06T21:39:12.429Z,97738.72
2023-03-06T21:42:15.894Z,97733.81
2023-03-06T21:45:20.617Z,97736.19
2023-03-06T21:48:25.649Z,97739.19
2023-03-06T21:51:29.252Z,97741.56
2023-03-06T21:54:32.795Z,97739.88
2023-03-06T21:57:36.352Z,97737.50
2023-03-06T22:00:41.020Z,97744.19
2023-03-06T22:03:46.354Z,97739.03
2023-03-06T22:06:49.829Z,97742.41
2023-03-06T22:09:54.418Z,97740.41
2023-03-06T22:12:57.992Z,97741.72
2023-03-06T22:16:01.524Z,97739.50
2023-03-06T22:19:07.555Z,97738.41
2023-03-06T22:22:13.350Z,97736.88
2023-03-06T22:25:17.363Z,97744.19
2023-03-06T22:28:20.875Z,97733.00
2023-03-06T22:31:26.453Z,97739.34
2023-03-06T22:34:31.427Z,97737.81
2023-03-06T22:37:34.833Z,97733.88
2023-03-06T22:40:38.347Z,97738.94
2023-03-06T22:43:42.938Z,97736.91
2023-03-06T22:46:47.437Z,97729.72
2023-03-06T22:49:52.885Z,97744.59
2023-03-06T22:52:56.676Z,97727.81
2023-03-06T22:56:00.853Z,97736.28
2023-03-06T22:59:05.112Z,97740.97
2023-03-06T23:02:09.254Z,97733.25
2023-03-06T23:05:14.195Z,97735.44
2023-03-06T23:08:18.412Z,97748.81
2023-03-06T23:11:23.702Z,97745.88
2023-03-06T23:14:49.604Z,97745.19
2023-03-06T23:18:11.760Z,97741.34
2023-03-06T23:21:35.747Z,97739.34
2023-03-06T23:24:58.797Z,97741.63
2023-03-06T23:28:03.283Z,97740.66
2023-03-06T23:31:10.834Z,97731.25
2023-03-06T23:34:15.079Z,97741.50
2023-03-06T23:37:20.550Z,97728.06
2023-03-06T23:40:24.381Z,97735.44
2023-03-06T23:43:29.528Z,97744.25
2023-03-06T23:46:34.026Z,97742.56
2023-03-06T23:49:38.210Z,97740.41
2023-03-06T23:52:43.582Z,97743.31
2023-03-06T23:55:48.555Z,97748.22
2023-03-06T23:58:52.034Z,97742.19
